Time;durP1;ratioP1;P1;durP2;ratioP2;P2;SDS_P1;SDS_P2;PMS_P1;PMS_P2;Temp;Humidity;BMP_temperature;BMP_pressure;BME280_temperature;BME280_humidity;BME280_pressure;Samples;Min_cycle;Max_cycle;Signal;HPM_P1;HPM_P2
2020/12/11 00:01:57;;;;;;;39.38;19.73;;;1.60;99.90;;;;;;12456982;28;20077;-34
2020/12/11 00:07:59;;;;;;;37.05;19.83;;;1.50;99.90;;;;;;12464207;28;20045;-33
2020/12/11 00:14:00;;;;;;;33.63;19.15;;;1.50;99.90;;;;;;12448469;28;20048;-34
2020/12/11 00:20:05;;;;;;;32.83;18.25;;;1.50;99.90;;;;;;12448080;28;20045;-33
2020/12/11 00:26:06;;;;;;;35.20;20.13;;;1.50;99.90;;;;;;12450836;28;20641;-33
2020/12/11 00:32:07;;;;;;;33.83;19.08;;;1.50;99.90;;;;;;12435519;28;20092;-35
2020/12/11 00:38:09;;;;;;;33.92;19.08;;;1.50;99.90;;;;;;12420462;28;20075;-33
2020/12/11 00:44:10;;;;;;;37.47;20.10;;;1.50;99.90;;;;;;12444618;28;21048;-34
2020/12/11 00:50:12;;;;;;;34.42;18.85;;;1.50;99.90;;;;;;12435306;28;20471;-33
2020/12/11 00:56:13;;;;;;;37.70;19.80;;;1.60;99.90;;;;;;12452495;28;20086;-35
2020/12/11 01:02:15;;;;;;;43.40;20.63;;;1.50;99.90;;;;;;12446783;28;20450;-33
2020/12/11 01:08:16;;;;;;;36.35;19.17;;;1.40;99.90;;;;;;12455406;28;20049;-35
2020/12/11 01:14:18;;;;;;;34.67;18.42;;;1.40;99.90;;;;;;12434389;28;20164;-33
2020/12/11 01:20:19;;;;;;;37.80;20.40;;;1.40;99.90;;;;;;12460932;28;20136;-33
2020/12/11 01:26:20;;;;;;;39.55;21.00;;;1.40;99.90;;;;;;12417260;28;20045;-33
2020/12/11 01:32:21;;;;;;;41.25;20.02;;;1.40;99.90;;;;;;12444935;28;20132;-33
2020/12/11 01:38:23;;;;;;;36.22;19.10;;;1.50;99.90;;;;;;12441653;28;20149;-33
2020/12/11 01:44:26;;;;;;;40.70;21.15;;;1.40;99.90;;;;;;12445393;28;20088;-33
2020/12/11 01:50:28;;;;;;;39.45;20.15;;;1.50;99.90;;;;;;12449785;28;20064;-33
2020/12/11 01:56:32;;;;;;;42.88;20.80;;;1.40;99.90;;;;;;12454911;28;20103;-33
2020/12/11 02:02:37;;;;;;;36.72;19.77;;;1.40;99.90;;;;;;12444801;28;20100;-33
2020/12/11 02:08:38;;;;;;;;;;;1.40;99.90;;;;;;12445174;28;20132;-33
2020/12/11 02:14:40;;;;;;;39.08;20.05;;;1.40;99.90;;;;;;12447591;28;19936;-33
2020/12/11 02:20:41;;;;;;;39.25;19.55;;;1.40;99.90;;;;;;12458109;28;20508;-33
2020/12/11 02:26:43;;;;;;;37.10;20.20;;;1.40;99.90;;;;;;12455944;28;20459;-33
2020/12/11 02:32:44;;;;;;;36.28;19.08;;;1.30;99.90;;;;;;12445065;28;20088;-33
2020/12/11 02:38:46;;;;;;;36.30;19.83;;;1.30;99.90;;;;;;12449091;28;20139;-33
2020/12/11 02:44:47;;;;;;;38.45;19.23;;;1.40;99.90;;;;;;12410940;28;622101;-33
2020/12/11 02:50:49;;;;;;;37.95;20.38;;;1.30;99.90;;;;;;12440263;28;20053;-33
2020/12/11 02:56:51;;;;;;;35.55;19.15;;;1.30;99.90;;;;;;12454132;28;20053;-33
2020/12/11 03:02:52;;;;;;;36.70;19.58;;;1.40;99.90;;;;;;12453472;28;20103;-33
2020/12/11 03:08:54;;;;;;;33.72;18.48;;;1.30;99.90;;;;;;12456451;28;20064;-33
2020/12/11 03:14:57;;;;;;;37.83;19.70;;;1.40;99.90;;;;;;12435665;28;20080;-33
2020/12/11 03:20:58;;;;;;;37.58;19.75;;;1.40;99.90;;;;;;12454824;28;20054;-33
2020/12/11 03:26:59;;;;;;;34.47;19.75;;;1.40;99.90;;;;;;12455211;28;20498;-33
2020/12/11 03:33:00;;;;;;;36.30;19.45;;;1.40;99.90;;;;;;12446808;28;20081;-33
2020/12/11 03:39:02;;;;;;;37.60;21.00;;;1.40;99.90;;;;;;12440339;28;20081;-33
2020/12/11 03:45:04;;;;;;;39.42;20.90;;;1.30;99.90;;;;;;12430152;28;20061;-33
2020/12/11 03:51:05;;;;;;;38.67;20.73;;;1.40;99.90;;;;;;12453996;28;20405;-33
2020/12/11 03:57:07;;;;;;;40.88;21.58;;;1.40;99.90;;;;;;12440032;28;20096;-33
2020/12/11 04:03:08;;;;;;;41.15;20.88;;;1.30;99.90;;;;;;12441755;28;20085;-33
2020/12/11 04:09:09;;;;;;;35.80;20.58;;;1.30;99.90;;;;;;12449877;28;20409;-33
2020/12/11 04:15:10;;;;;;;35.42;18.85;;;1.30;99.90;;;;;;12424953;28;20056;-33
2020/12/11 04:21:16;;;;;;;35.60;19.00;;;1.30;99.90;;;;;;12432927;28;20104;-33
2020/12/11 04:27:17;;;;;;;33.13;19.60;;;1.40;99.90;;;;;;12444844;28;20053;-33
2020/12/11 04:33:18;;;;;;;28.30;17.23;;;1.40;99.90;;;;;;12432882;28;20394;-33
2020/12/11 04:39:20;;;;;;;32.00;17.58;;;1.40;99.90;;;;;;12431425;28;20168;-33
2020/12/11 04:45:23;;;;;;;31.77;17.50;;;1.40;99.90;;;;;;12447870;28;20064;-33
2020/12/11 04:51:33;;;;;;;30.70;17.42;;;1.40;99.90;;;;;;12435155;28;20088;-33
2020/12/11 04:57:43;;;;;;;29.63;17.70;;;1.40;99.90;;;;;;12444416;28;20045;-33
2020/12/11 05:03:44;;;;;;;30.80;18.17;;;1.40;99.90;;;;;;12439557;28;20041;-33
2020/12/11 05:09:56;;;;;;;30.15;18.60;;;1.40;99.90;;;;;;12439746;28;20076;-33
2020/12/11 05:16:16;;;;;;;28.83;17.55;;;1.40;99.90;;;;;;12437950;28;20053;-33
2020/12/11 05:22:19;;;;;;;29.67;18.85;;;1.50;99.90;;;;;;12427335;28;20561;-33
2020/12/11 05:28:20;;;;;;;28.83;17.48;;;1.50;99.90;;;;;;12441067;28;20049;-35
2020/12/11 05:34:21;;;;;;;28.30;17.13;;;1.50;99.90;;;;;;12435253;28;20128;-33
2020/12/11 05:40:30;;;;;;;28.20;16.40;;;1.50;99.90;;;;;;12446321;28;20513;-33
2020/12/11 05:46:32;;;;;;;27.45;16.38;;;1.60;99.90;;;;;;12417145;28;20497;-33
2020/12/11 05:52:33;;;;;;;26.95;16.02;;;1.60;99.90;;;;;;12430723;28;20050;-33
2020/12/11 05:58:35;;;;;;;27.00;16.13;;;1.60;99.90;;;;;;12420871;28;20057;-33
2020/12/11 06:04:37;;;;;;;28.48;17.70;;;1.60;99.90;;;;;;12429686;28;20512;-33
2020/12/11 06:10:42;;;;;;;27.27;16.35;;;1.60;99.90;;;;;;12436250;28;20164;-33
2020/12/11 06:16:44;;;;;;;27.17;16.63;;;1.60;99.90;;;;;;12450624;28;20084;-33
2020/12/11 06:22:46;;;;;;;27.10;16.67;;;1.60;99.90;;;;;;12440253;28;20135;-34
2020/12/11 06:28:50;;;;;;;24.80;16.20;;;1.70;99.90;;;;;;12435262;28;20081;-33
2020/12/11 06:35:12;;;;;;;22.85;15.45;;;1.70;99.90;;;;;;12418706;28;20041;-33
2020/12/11 06:41:34;;;;;;;25.65;15.30;;;1.80;99.90;;;;;;12408597;28;20045;-33
2020/12/11 06:47:35;;;;;;;21.50;13.90;;;1.80;99.90;;;;;;12415423;28;20144;-33
2020/12/11 06:53:40;;;;;;;24.45;14.85;;;1.90;99.90;;;;;;12414781;28;20049;-33
2020/12/11 06:59:42;;;;;;;25.35;15.82;;;1.90;99.90;;;;;;12427843;28;20071;-33
2020/12/11 07:05:44;;;;;;;21.52;14.13;;;1.90;99.90;;;;;;12432002;28;20049;-33
2020/12/11 07:11:47;;;;;;;23.80;15.25;;;2.00;99.90;;;;;;12434861;28;20057;-33
2020/12/11 07:17:49;;;;;;;24.58;16.08;;;2.00;99.90;;;;;;12434735;28;20477;-33
2020/12/11 07:23:50;;;;;;;22.48;14.65;;;1.90;99.90;;;;;;12458479;28;20438;-33
2020/12/11 07:29:52;;;;;;;27.13;15.23;;;1.90;99.90;;;;;;12457982;28;20405;-33
2020/12/11 07:35:53;;;;;;;24.88;15.40;;;2.00;99.90;;;;;;12448503;28;20057;-33
2020/12/11 07:41:56;;;;;;;27.00;15.00;;;1.90;99.90;;;;;;12430393;28;20064;-33
2020/12/11 07:47:58;;;;;;;25.02;15.00;;;1.90;99.90;;;;;;12441539;28;20057;-33
2020/12/11 07:53:59;;;;;;;26.48;16.23;;;1.90;99.90;;;;;;12440052;28;20061;-33
2020/12/11 08:00:07;;;;;;;21.63;14.25;;;1.90;99.90;;;;;;12421433;28;20105;-33
2020/12/11 08:06:12;;;;;;;24.15;14.63;;;2.00;99.90;;;;;;12427216;28;20208;-33
2020/12/11 08:12:17;;;;;;;22.23;14.90;;;2.00;99.90;;;;;;12424875;28;20049;-33
2020/12/11 08:18:22;;;;;;;22.07;13.43;;;2.00;99.90;;;;;;12427055;28;20069;-33
2020/12/11 08:24:28;;;;;;;23.73;14.40;;;2.10;99.90;;;;;;12460669;28;20335;-33
2020/12/11 08:30:34;;;;;;;22.23;14.13;;;2.20;99.90;;;;;;12424102;28;20414;-33
2020/12/11 08:36:46;;;;;;;24.27;15.15;;;2.30;99.90;;;;;;12428206;28;20049;-33
2020/12/11 08:49:23;;;;;;;20.75;13.65;;;2.30;99.90;;;;;;12442250;28;20077;-33
2020/12/11 08:55:24;;;;;;;22.25;13.65;;;2.30;99.90;;;;;;12412297;28;20175;-33
2020/12/11 09:01:26;;;;;;;21.95;13.93;;;2.40;99.90;;;;;;12421360;28;20902;-33
2020/12/11 09:07:31;;;;;;;19.63;13.05;;;2.40;99.90;;;;;;12430764;28;20049;-33
2020/12/11 09:13:32;;;;;;;21.35;13.38;;;2.50;99.90;;;;;;12432578;28;20073;-33
2020/12/11 09:19:33;;;;;;;20.40;13.27;;;2.50;99.90;;;;;;12437184;28;20053;-33
2020/12/11 09:25:34;;;;;;;23.63;14.85;;;2.60;99.90;;;;;;12446364;28;20049;-33
2020/12/11 09:31:37;;;;;;;22.50;14.45;;;2.60;99.90;;;;;;12410025;28;20073;-33
2020/12/11 09:37:39;;;;;;;23.10;15.48;;;2.70;99.90;;;;;;12443259;28;20049;-33
2020/12/11 09:49:57;;;;;;;26.30;14.90;;;2.80;99.90;;;;;;12448624;28;20053;-33
2020/12/11 09:56:03;;;;;;;22.60;12.90;;;2.80;99.90;;;;;;12441816;28;20077;-33
2020/12/11 10:02:24;;;;;;;23.23;15.25;;;2.90;99.90;;;;;;12423788;28;20064;-33
2020/12/11 10:08:25;;;;;;;22.70;14.38;;;2.90;99.90;;;;;;12414662;28;20054;-33
2020/12/11 10:14:33;;;;;;;22.55;13.90;;;3.00;99.90;;;;;;12449770;28;20129;-33
2020/12/11 10:20:37;;;;;;;23.02;14.60;;;3.00;99.90;;;;;;12442452;28;20517;-33
2020/12/11 10:26:39;;;;;;;27.83;16.60;;;3.10;99.90;;;;;;12436061;28;20687;-33
2020/12/11 10:32:41;;;;;;;23.52;14.85;;;3.10;99.90;;;;;;12416577;28;20501;-33
2020/12/11 10:38:43;;;;;;;22.88;13.93;;;3.10;99.90;;;;;;12441399;28;20157;-33
2020/12/11 10:44:44;;;;;;;26.05;15.70;;;3.10;99.90;;;;;;12435718;28;20073;-33
2020/12/11 10:50:46;;;;;;;26.35;14.52;;;3.10;99.90;;;;;;12436941;28;20057;-33
2020/12/11 10:56:47;;;;;;;25.20;14.63;;;3.20;99.90;;;;;;12415721;28;20054;-33
2020/12/11 11:02:49;;;;;;;26.65;16.05;;;3.20;99.90;;;;;;12437443;28;20053;-33
2020/12/11 11:21:33;;;;;;;26.08;15.07;;;3.50;99.90;;;;;;12456782;28;20081;-33
2020/12/11 11:33:36;;;;;;;26.13;16.13;;;3.90;99.90;;;;;;12441206;28;20046;-33
2020/12/11 11:39:37;;;;;;;28.10;16.70;;;4.00;99.90;;;;;;12417986;28;20128;-33
2020/12/11 11:45:39;;;;;;;23.55;14.70;;;4.00;99.90;;;;;;12427735;28;20169;-33
2020/12/11 11:51:49;;;;;;;41.15;22.05;;;3.90;99.90;;;;;;12450939;28;20088;-33
2020/12/11 11:57:51;;;;;;;28.13;16.15;;;3.90;99.90;;;;;;12456027;28;20524;-33
2020/12/11 12:03:52;;;;;;;23.02;14.27;;;3.90;99.90;;;;;;12433561;28;20461;-34
2020/12/11 12:09:53;;;;;;;24.80;13.80;;;3.90;99.90;;;;;;12433806;28;20080;-33
2020/12/11 12:15:56;;;;;;;24.98;14.63;;;4.00;99.90;;;;;;12445958;28;20073;-33
2020/12/11 12:34:39;;;;;;;24.48;14.32;;;3.90;99.90;;;;;;12424089;28;20128;-33
2020/12/11 12:47:00;;;;;;;22.70;14.10;;;3.90;99.90;;;;;;12425928;28;20181;-33
2020/12/11 12:53:02;;;;;;;24.02;14.00;;;3.90;99.90;;;;;;12431359;28;20072;-33
2020/12/11 12:59:12;;;;;;;26.17;15.35;;;3.90;99.90;;;;;;12424131;28;20045;-33
2020/12/11 13:05:14;;;;;;;21.52;12.98;;;3.90;99.90;;;;;;12438750;28;20053;-33
2020/12/11 13:11:16;;;;;;;25.10;13.32;;;3.90;99.90;;;;;;12452816;28;20114;-33
2020/12/11 13:17:18;;;;;;;24.60;13.45;;;3.90;99.90;;;;;;12445606;28;20049;-33
2020/12/11 13:29:26;;;;;;;24.20;13.27;;;3.90;99.90;;;;;;12436538;28;20058;-33
2020/12/11 13:35:29;;;;;;;24.80;13.73;;;4.00;99.90;;;;;;12429885;28;20046;-33
2020/12/11 13:41:31;;;;;;;21.77;13.38;;;4.00;99.90;;;;;;12439749;28;20060;-33
2020/12/11 13:47:32;;;;;;;25.02;14.43;;;4.00;99.90;;;;;;12434594;28;20068;-33
2020/12/11 13:53:33;;;;;;;24.63;14.25;;;4.00;99.90;;;;;;12412979;28;20436;-33
2020/12/11 13:59:35;;;;;;;25.35;14.85;;;4.00;99.90;;;;;;12406864;28;20078;-33
2020/12/11 14:05:37;;;;;;;22.50;12.98;;;4.00;99.90;;;;;;12423300;28;20093;-33
2020/12/11 14:11:38;;;;;;;21.88;13.48;;;4.00;99.90;;;;;;12437170;28;20045;-33
2020/12/11 14:23:50;;;;;;;23.02;13.02;;;4.00;99.90;;;;;;12460059;28;20084;-33
2020/12/11 14:29:52;;;;;;;26.17;13.65;;;4.00;99.90;;;;;;12467864;28;20057;-33
2020/12/11 14:35:53;;;;;;;25.77;14.32;;;4.00;99.90;;;;;;12420016;28;20160;-33
2020/12/11 14:41:59;;;;;;;23.42;12.85;;;4.00;99.90;;;;;;12421865;28;20084;-33
2020/12/11 14:48:00;;;;;;;23.70;12.98;;;4.00;99.90;;;;;;12440014;28;20060;-33
2020/12/11 14:54:03;;;;;;;23.30;13.43;;;4.00;99.90;;;;;;12439361;28;20046;-33
2020/12/11 15:00:06;;;;;;;24.33;14.18;;;4.00;99.90;;;;;;12439477;28;20045;-33
2020/12/11 15:06:12;;;;;;;23.55;13.45;;;3.90;99.90;;;;;;12445331;28;20049;-33
2020/12/11 15:12:13;;;;;;;23.35;12.98;;;3.90;99.90;;;;;;12442848;28;20057;-33
2020/12/11 15:18:15;;;;;;;28.50;15.50;;;3.90;99.90;;;;;;12432111;28;20512;-33
2020/12/11 15:24:17;;;;;;;26.90;14.35;;;3.80;99.90;;;;;;12438132;28;20085;-33
2020/12/11 15:30:18;;;;;;;21.58;12.32;;;3.80;99.90;;;;;;12443278;28;20046;-33
2020/12/11 15:36:20;;;;;;;23.83;13.52;;;3.80;99.90;;;;;;12420593;28;20160;-33
2020/12/11 15:42:21;;;;;;;25.42;15.15;;;3.80;99.90;;;;;;12432559;28;20080;-33
2020/12/11 15:48:23;;;;;;;26.15;14.10;;;3.80;99.90;;;;;;12445821;28;20137;-33
2020/12/11 15:54:24;;;;;;;24.70;12.88;;;3.80;99.90;;;;;;12445752;28;21240;-33
2020/12/11 16:00:28;;;;;;;25.48;14.02;;;3.80;99.90;;;;;;12401130;28;20136;-33
2020/12/11 16:06:32;;;;;;;24.50;13.10;;;3.80;99.90;;;;;;12423652;28;20064;-33
2020/12/11 16:12:38;;;;;;;24.35;13.95;;;3.90;99.90;;;;;;12435299;28;20049;-33
2020/12/11 16:18:39;;;;;;;25.70;13.85;;;3.90;99.90;;;;;;12433778;28;20809;-33
2020/12/11 16:24:41;;;;;;;22.15;13.55;;;3.90;99.90;;;;;;12449058;28;20053;-33
2020/12/11 16:30:42;;;;;;;22.73;13.55;;;3.90;99.90;;;;;;12432953;28;20717;-33
2020/12/11 16:36:51;;;;;;;24.77;13.30;;;4.00;99.90;;;;;;12437394;28;20042;-33
2020/12/11 16:43:07;;;;;;;22.77;12.75;;;3.90;99.90;;;;;;12440638;28;20070;-33
2020/12/11 16:49:14;;;;;;;21.58;12.05;;;3.90;99.90;;;;;;12434445;28;20078;-33
2020/12/11 16:55:16;;;;;;;20.63;11.65;;;3.90;99.90;;;;;;12435523;28;20049;-33
2020/12/11 17:01:30;;;;;;;21.42;11.45;;;3.90;99.90;;;;;;12427944;28;20057;-33
2020/12/11 17:07:36;;;;;;;22.38;12.05;;;3.90;99.90;;;;;;12425323;28;20069;-33
2020/12/11 17:13:38;;;;;;;21.10;12.05;;;3.80;99.90;;;;;;12431105;28;20077;-33
2020/12/11 17:19:39;;;;;;;22.73;12.60;;;3.80;99.90;;;;;;12431343;28;20188;-33
2020/12/11 17:25:41;;;;;;;23.05;12.38;;;3.70;99.90;;;;;;12452185;28;20048;-33
2020/12/11 17:31:50;;;;;;;22.27;12.27;;;3.80;99.90;;;;;;12436236;28;20049;-33
2020/12/11 17:37:51;;;;;;;19.10;11.40;;;3.70;99.90;;;;;;12436053;28;20084;-33
2020/12/11 17:43:52;;;;;;;19.50;11.50;;;3.70;99.90;;;;;;12404465;28;20061;-33
2020/12/11 17:50:10;;;;;;;20.05;11.63;;;3.70;99.90;;;;;;12434630;28;20460;-33
2020/12/11 17:56:13;;;;;;;22.77;13.93;;;3.70;99.90;;;;;;12417120;28;20053;-33
2020/12/11 18:02:14;;;;;;;23.38;14.13;;;3.60;99.90;;;;;;12431063;28;20056;-34
2020/12/11 18:08:16;;;;;;;22.33;14.00;;;3.60;99.90;;;;;;12436506;28;20064;-33
2020/12/11 18:14:21;;;;;;;18.92;11.70;;;3.50;99.90;;;;;;12438954;28;20505;-33
2020/12/11 18:20:23;;;;;;;23.17;14.00;;;3.40;99.90;;;;;;12446172;28;20844;-33
2020/12/11 18:26:25;;;;;;;25.70;14.25;;;3.40;99.90;;;;;;12450362;28;20080;-33
2020/12/11 18:32:26;;;;;;;34.20;21.50;;;3.40;99.90;;;;;;12446725;28;20622;-33
2020/12/11 18:38:33;;;;;;;21.45;13.95;;;3.30;99.90;;;;;;12420389;28;20052;-33
2020/12/11 18:44:34;;;;;;;21.83;13.48;;;3.40;99.90;;;;;;12435347;28;20151;-33
2020/12/11 18:50:36;;;;;;;24.17;14.38;;;3.30;99.90;;;;;;12436496;28;20604;-33
2020/12/11 18:56:49;;;;;;;23.23;13.27;;;3.30;99.90;;;;;;12436156;28;20132;-33
2020/12/11 19:02:51;;;;;;;26.63;16.77;;;3.30;99.90;;;;;;12428548;28;20058;-33
2020/12/11 19:08:53;;;;;;;21.45;12.75;;;3.30;99.90;;;;;;12428265;28;20085;-33
2020/12/11 19:14:54;;;;;;;22.88;14.75;;;3.30;99.90;;;;;;12442680;28;20077;-33
2020/12/11 19:20:55;;;;;;;23.52;15.18;;;3.30;99.90;;;;;;12420339;28;20533;-33
2020/12/11 19:26:57;;;;;;;23.30;14.73;;;3.30;99.90;;;;;;12449991;28;20144;-33
2020/12/11 19:32:58;;;;;;;24.23;13.35;;;3.30;99.90;;;;;;12435113;28;20080;-33
2020/12/11 19:39:00;;;;;;;23.50;14.75;;;3.30;99.90;;;;;;12446891;28;20141;-34
2020/12/11 19:45:02;;;;;;;22.45;14.20;;;3.40;99.90;;;;;;12433807;28;20512;-33
2020/12/11 19:51:04;;;;;;;22.23;13.48;;;3.40;99.90;;;;;;12427962;28;20129;-33
2020/12/11 19:57:05;;;;;;;20.17;12.95;;;3.40;99.90;;;;;;12415668;28;20132;-33
2020/12/11 20:03:06;;;;;;;21.73;13.93;;;3.50;99.90;;;;;;12444314;28;20057;-33
2020/12/11 20:15:29;;;;;;;21.63;13.23;;;3.60;99.90;;;;;;12428790;28;20453;-33
2020/12/11 20:21:33;;;;;;;21.00;13.13;;;3.60;99.90;;;;;;12431748;28;20639;-33
2020/12/11 20:27:34;;;;;;;22.08;13.00;;;3.60;99.90;;;;;;12440004;28;20095;-33
2020/12/11 20:33:35;;;;;;;21.38;13.07;;;3.60;99.90;;;;;;12430854;28;20076;-33
2020/12/11 20:39:36;;;;;;;22.27;13.27;;;3.60;99.90;;;;;;12433593;28;20069;-33
2020/12/11 20:45:42;;;;;;;23.63;14.50;;;3.70;99.90;;;;;;12432904;28;20162;-33
2020/12/11 20:51:43;;;;;;;24.00;14.13;;;3.70;99.90;;;;;;12428370;28;20050;-33
2020/12/11 20:57:44;;;;;;;20.95;12.98;;;3.70;99.90;;;;;;12431206;28;20132;-33
2020/12/11 21:03:46;;;;;;;21.58;13.63;;;3.80;99.90;;;;;;12427190;28;20058;-33
2020/12/11 21:09:50;;;;;;;22.17;13.82;;;3.80;99.90;;;;;;12439611;28;20516;-33
2020/12/11 21:15:52;;;;;;;22.08;13.35;;;3.70;99.90;;;;;;12409146;28;20060;-33
2020/12/11 21:21:53;;;;;;;20.70;12.75;;;3.70;99.90;;;;;;12422833;28;20053;-33
2020/12/11 21:27:55;;;;;;;25.58;15.30;;;3.70;99.90;;;;;;12447813;28;20406;-34
2020/12/11 21:40:19;;;;;;;24.20;15.15;;;3.60;99.90;;;;;;12439683;28;20599;-33
2020/12/11 21:46:25;;;;;;;21.92;13.23;;;3.70;99.90;;;;;;12394182;28;20588;-33
2020/12/11 21:52:27;;;;;;;21.60;12.65;;;3.70;99.90;;;;;;12447332;28;20088;-33
2020/12/11 21:58:28;;;;;;;21.90;13.80;;;3.70;99.90;;;;;;12434012;28;20080;-33
2020/12/11 22:04:29;;;;;;;25.33;14.82;;;3.70;99.90;;;;;;12447617;28;20053;-33
2020/12/11 22:10:30;;;;;;;24.92;15.27;;;3.60;99.90;;;;;;12431550;28;20056;-33
2020/12/11 22:16:33;;;;;;;22.77;13.50;;;3.60;99.90;;;;;;12443867;28;20129;-33
2020/12/11 22:22:35;;;;;;;21.02;13.18;;;3.60;99.90;;;;;;12424471;28;20098;-33
2020/12/11 22:28:41;;;;;;;21.88;13.73;;;3.80;99.90;;;;;;12439756;28;20061;-34
2020/12/11 22:34:43;;;;;;;20.63;13.52;;;3.80;99.90;;;;;;12409831;28;20056;-33
2020/12/11 22:40:44;;;;;;;22.77;13.35;;;3.80;99.90;;;;;;12436497;28;20053;-33
2020/12/11 22:46:53;;;;;;;23.50;13.88;;;3.80;99.90;;;;;;12435959;28;20107;-33
2020/12/11 22:52:55;;;;;;;22.48;13.95;;;3.80;99.90;;;;;;12408290;28;20053;-34
2020/12/11 22:58:56;;;;;;;22.42;13.63;;;3.80;99.90;;;;;;12436523;28;20053;-34
2020/12/11 23:04:58;;;;;;;22.63;13.18;;;3.80;99.90;;;;;;12435370;28;20058;-34
2020/12/11 23:11:00;;;;;;;22.30;13.75;;;3.80;99.90;;;;;;12435026;28;20041;-34
2020/12/11 23:17:01;;;;;;;23.95;13.38;;;3.70;99.90;;;;;;12452577;28;20081;-33
2020/12/11 23:23:03;;;;;;;20.75;12.95;;;3.70;99.90;;;;;;12449857;28;20513;-33
2020/12/11 23:29:05;;;;;;;22.38;13.68;;;3.70;99.90;;;;;;12440485;28;20080;-33
2020/12/11 23:35:06;;;;;;;23.20;14.20;;;3.80;99.90;;;;;;12439970;28;20049;-33
2020/12/11 23:41:07;;;;;;;24.20;14.48;;;3.70;99.90;;;;;;12438120;28;20081;-33
2020/12/11 23:47:09;;;;;;;25.58;14.65;;;3.60;99.90;;;;;;12439727;28;20784;-33
2020/12/11 23:53:11;;;;;;;24.08;14.75;;;3.50;99.90;;;;;;12450564;28;20072;-34
2020/12/11 23:59:12;;;;;;;24.10;14.80;;;3.50;99.90;;;;;;12433601;28;20513;-33
